Time;durP1;ratioP1;P1;durP2;ratioP2;P2;SDS_P1;SDS_P2;PMS_P1;PMS_P2;Temp;Humidity;BMP_temperature;BMP_pressure;BME280_temperature;BME280_humidity;BME280_pressure;Samples;Min_cycle;Max_cycle;Signal;HPM_P1;HPM_P2
2022/04/14 00:01:49;;;;;;;;;13.00;9.25;;;;;12.80;80.14;-18834.97;4961659;28;9743;-69
2022/04/14 00:04:16;;;;;;;;;17.25;12.25;;;;;12.78;79.83;-18834.22;4963185;28;9794;-69
2022/04/14 00:06:42;;;;;;;;;14.50;11.75;;;;;12.76;79.93;-18833.75;4959563;28;9551;-70
2022/04/14 00:09:09;;;;;;;;;14.00;10.50;;;;;12.70;80.46;-18831.94;4963888;28;9725;-71
2022/04/14 00:11:35;;;;;;;;;15.75;14.50;;;;;12.67;80.71;-18830.91;4963335;28;9922;-71
2022/04/14 00:14:02;;;;;;;;;9.00;9.00;;;;;12.71;80.68;-18832.09;4961662;28;10184;-71
2022/04/14 00:16:28;;;;;;;;;13.75;13.75;;;;;12.61;80.63;-18829.22;4963372;28;9776;-70
2022/04/14 00:18:55;;;;;;;;;13.25;13.00;;;;;12.57;81.06;-18828.03;4965254;28;9897;-70
2022/04/14 00:21:21;;;;;;;;;14.00;13.00;;;;;12.58;81.08;-18828.31;4959208;28;9961;-70
2022/04/14 00:23:48;;;;;;;;;16.00;15.75;;;;;12.59;81.26;-18828.63;4962218;28;10165;-70
2022/04/14 00:26:15;;;;;;;;;15.50;13.75;;;;;12.59;80.92;-18828.78;4962106;28;9872;-70
2022/04/14 00:28:42;;;;;;;;;16.25;15.25;;;;;12.54;81.38;-18827.13;4961374;28;9889;-69
2022/04/14 00:31:08;;;;;;;;;18.00;14.25;;;;;12.47;81.04;-18825.00;4962287;28;9902;-71
2022/04/14 00:33:35;;;;;;;;;14.25;14.00;;;;;12.48;81.66;-18825.47;4961225;28;9934;-70
2022/04/14 00:36:01;;;;;;;;;21.50;18.25;;;;;12.46;81.64;-18824.88;4960831;28;10065;-70
2022/04/14 00:38:28;;;;;;;;;20.50;15.75;;;;;12.44;81.90;-18824.25;4962526;28;10150;-71
2022/04/14 00:40:55;;;;;;;;;21.50;18.25;;;;;12.44;81.82;-18824.25;4960712;28;10297;-70
2022/04/14 00:43:33;;;;;;;;;19.25;19.25;;;;;12.41;81.75;-18823.22;4960191;28;10130;-70
2022/04/14 00:46:01;;;;;;;;;18.75;16.00;;;;;12.42;81.98;-18823.66;4959944;28;10141;-70
2022/04/14 00:48:28;;;;;;;;;15.25;15.25;;;;;12.41;82.07;-18823.34;4960884;28;9958;-70
2022/04/14 00:50:55;;;;;;;;;17.00;14.50;;;;;12.38;82.19;-18822.44;4961045;28;9949;-70
2022/04/14 00:53:23;;;;;;;;;14.75;13.75;;;;;12.39;81.88;-18822.75;4960588;28;10114;-70
2022/04/14 00:55:50;;;;;;;;;30.00;24.00;;;;;12.27;82.01;-18819.28;4960242;28;10616;-70
2022/04/14 00:58:17;;;;;;;;;21.25;19.75;;;;;12.33;82.36;-18821.09;4964077;28;10552;-68
2022/04/14 01:00:44;;;;;;;;;20.25;18.00;;;;;12.19;82.77;-18816.72;4960270;28;10387;-72
2022/04/14 01:03:10;;;;;;;;;23.00;20.25;;;;;12.23;82.75;-18818.09;4959469;28;10040;-69
2022/04/14 01:05:37;;;;;;;;;20.25;17.00;;;;;12.17;82.87;-18816.13;4963338;28;10995;-68
2022/04/14 01:08:05;;;;;;;;;17.00;11.50;;;;;12.15;83.33;-18815.53;4965141;28;10115;-70
2022/04/14 01:10:33;;;;;;;;;17.50;16.50;;;;;12.10;83.20;-18814.16;4965781;28;10114;-70
2022/04/14 01:13:00;;;;;;;;;17.75;16.00;;;;;12.06;83.25;-18812.81;4965101;28;10740;-71
2022/04/14 01:15:27;;;;;;;;;18.25;16.00;;;;;12.06;83.20;-18812.94;4964868;28;10806;-69
2022/04/14 01:17:53;;;;;;;;;18.00;16.00;;;;;12.05;83.58;-18812.50;4965089;28;10206;-70
2022/04/14 01:20:19;;;;;;;;;17.00;15.50;;;;;12.05;83.51;-18812.66;4962782;28;10134;-70
2022/04/14 01:22:50;;;;;;;;;16.25;14.00;;;;;11.99;83.52;-18810.84;4965425;28;10207;-71
2022/04/14 01:25:17;;;;;;;;;19.50;14.25;;;;;11.94;83.88;-18809.50;4964744;28;10501;-70
2022/04/14 01:27:43;;;;;;;;;17.25;17.25;;;;;11.87;83.90;-18807.22;4965335;28;10145;-70
2022/04/14 01:30:10;;;;;;;;;17.50;15.75;;;;;11.79;84.61;-18804.97;4965579;28;10470;-70
2022/04/14 01:32:36;;;;;;;;;12.25;11.50;;;;;11.84;84.54;-18806.31;4964630;28;10321;-71
2022/04/14 01:35:03;;;;;;;;;19.25;15.50;;;;;11.74;84.56;-18803.31;4963078;28;10702;-70
2022/04/14 01:37:29;;;;;;;;;18.75;17.00;;;;;11.73;84.39;-18803.00;4964570;28;10205;-70
2022/04/14 01:39:56;;;;;;;;;15.00;15.00;;;;;11.69;84.87;-18801.94;4961989;28;10495;-72
2022/04/14 01:42:22;;;;;;;;;14.75;13.00;;;;;11.69;85.06;-18802.09;4965551;28;9952;-70
2022/04/14 01:44:49;;;;;;;;;20.50;20.00;;;;;11.67;85.05;-18801.50;4963892;28;10038;-71
2022/04/14 01:47:15;;;;;;;;;19.00;14.50;;;;;11.67;84.96;-18801.34;4964205;28;10158;-71
2022/04/14 01:49:42;;;;;;;;;22.00;21.00;;;;;11.62;84.74;-18799.84;4963958;28;11094;-70
2022/04/14 01:52:09;;;;;;;;;22.75;22.00;;;;;11.58;85.14;-18798.63;4964369;28;10124;-70
2022/04/14 01:54:35;;;;;;;;;17.00;17.00;;;;;11.57;85.00;-18798.47;4964731;28;10315;-70
2022/04/14 01:57:02;;;;;;;;;19.00;18.50;;;;;11.53;85.37;-18797.28;4963444;28;10299;-71
2022/04/14 01:59:28;;;;;;;;;15.00;15.00;;;;;11.45;85.41;-18794.72;4964337;28;10456;-71
2022/04/14 02:01:55;;;;;;;;;18.25;17.50;;;;;11.40;85.44;-18793.50;4965010;28;10425;-71
2022/04/14 02:04:21;;;;;;;;;21.50;19.25;;;;;11.44;85.82;-18794.41;4963765;28;10209;-69
2022/04/14 02:06:48;;;;;;;;;21.50;19.00;;;;;11.46;85.80;-18795.16;4963015;28;10236;-71
2022/04/14 02:09:14;;;;;;;;;17.50;15.00;;;;;11.44;85.60;-18794.56;4963432;28;10294;-70
2022/04/14 02:11:40;;;;;;;;;19.00;16.00;;;;;11.42;85.50;-18793.81;4964146;28;10410;-70
2022/04/14 02:14:07;;;;;;;;;18.00;15.00;;;;;11.42;85.57;-18793.81;4963770;28;10269;-71
2022/04/14 02:16:33;;;;;;;;;18.25;16.50;;;;;11.44;85.28;-18794.56;4962163;28;10303;-71
2022/04/14 02:19:00;;;;;;;;;17.25;15.25;;;;;11.45;85.46;-18794.84;4964685;28;10409;-71
2022/04/14 02:21:26;;;;;;;;;20.50;16.50;;;;;11.41;85.51;-18793.66;4963152;28;10562;-71
2022/04/14 02:23:53;;;;;;;;;19.50;19.50;;;;;11.40;85.17;-18793.34;4964768;28;10205;-72
2022/04/14 02:26:19;;;;;;;;;16.50;16.50;;;;;11.33;85.12;-18791.38;4961799;28;10289;-70
2022/04/14 02:28:47;;;;;;;;;12.25;11.50;;;;;11.36;85.36;-18792.13;4964082;28;10348;-70
2022/04/14 02:31:13;;;;;;;;;18.50;16.25;;;;;11.36;85.20;-18792.13;4964380;28;10208;-70
2022/04/14 02:33:39;;;;;;;;;17.75;15.75;;;;;11.35;85.04;-18792.00;4964637;28;10211;-70
2022/04/14 02:36:06;;;;;;;;;14.50;12.00;;;;;11.33;84.74;-18791.25;4964109;28;10477;-71
2022/04/14 02:38:32;;;;;;;;;15.25;12.75;;;;;11.26;84.96;-18789.28;4963148;28;10320;-72
2022/04/14 02:40:59;;;;;;;;;9.50;9.50;;;;;11.21;85.39;-18787.78;4963834;28;10141;-71
2022/04/14 02:43:25;;;;;;;;;19.75;19.00;;;;;11.16;85.84;-18786.13;4964373;28;10260;-71
2022/04/14 02:45:52;;;;;;;;;16.50;15.75;;;;;11.12;85.82;-18784.91;4963394;28;10400;-70
2022/04/14 02:48:18;;;;;;;;;15.75;15.00;;;;;11.13;85.99;-18785.19;4962410;28;10195;-70
2022/04/14 02:50:45;;;;;;;;;14.00;11.75;;;;;11.10;86.33;-18784.59;4971714;28;10978;-71
2022/04/14 02:53:12;;;;;;;;;17.50;14.00;;;;;11.14;85.58;-18785.66;4965113;28;11131;-71
2022/04/14 02:55:38;;;;;;;;;14.25;13.50;;;;;11.12;85.72;-18784.91;4962341;28;10358;-71
2022/04/14 02:58:04;;;;;;;;;14.00;13.00;;;;;11.08;85.75;-18783.84;4963533;28;10267;-71
2022/04/14 03:00:31;;;;;;;;;11.00;10.00;;;;;11.06;85.98;-18783.25;4963793;28;10287;-71
2022/04/14 03:02:59;;;;;;;;;17.00;15.50;;;;;11.04;86.00;-18782.63;4961575;28;10211;-70
2022/04/14 03:05:26;;;;;;;;;14.25;12.25;;;;;11.08;86.23;-18783.84;4961008;28;10205;-71
2022/04/14 03:07:52;;;;;;;;;15.25;12.75;;;;;11.03;86.55;-18782.34;4961434;28;10287;-71
2022/04/14 03:10:19;;;;;;;;;13.00;12.25;;;;;11.06;86.55;-18783.41;4962474;28;10108;-71
2022/04/14 03:12:47;;;;;;;;;15.00;14.25;;;;;11.09;86.51;-18784.31;4962590;28;10270;-70
2022/04/14 03:15:14;;;;;;;;;15.75;13.00;;;;;11.08;86.12;-18784.00;4960771;28;10846;-70
2022/04/14 03:17:41;;;;;;;;;15.00;14.50;;;;;11.16;86.13;-18786.13;4962625;28;10268;-70
2022/04/14 03:20:09;;;;;;;;;19.00;13.25;;;;;11.13;85.79;-18785.19;4960528;28;10318;-68
2022/04/14 03:22:36;;;;;;;;;17.25;14.75;;;;;11.14;86.26;-18785.66;4963145;28;10226;-69
2022/04/14 03:25:05;;;;;;;;;10.75;8.50;;;;;11.14;85.93;-18785.66;4961706;28;10942;-70
2022/04/14 03:27:32;;;;;;;;;17.25;12.00;;;;;11.20;85.76;-18787.47;4959971;28;10220;-71
2022/04/14 03:29:59;;;;;;;;;13.50;12.00;;;;;11.23;85.91;-18788.22;4963187;28;10222;-72
2022/04/14 03:32:25;;;;;;;;;11.00;10.00;;;;;11.22;85.85;-18788.06;4962644;28;10328;-71
2022/04/14 03:34:53;;;;;;;;;11.50;11.50;;;;;11.24;86.09;-18788.69;4960786;28;10334;-71
2022/04/14 03:37:20;;;;;;;;;15.00;12.00;;;;;11.21;86.41;-18787.63;4962350;28;10344;-71
2022/04/14 03:39:47;;;;;;;;;12.75;10.00;;;;;11.18;86.38;-18786.88;4962166;28;10306;-70
2022/04/14 03:42:13;;;;;;;;;16.00;14.75;;;;;11.15;86.52;-18785.81;4962206;28;10182;-70
2022/04/14 03:44:40;;;;;;;;;12.00;11.00;;;;;11.14;86.92;-18785.50;4961455;28;10303;-70
2022/04/14 03:47:07;;;;;;;;;15.50;15.00;;;;;11.06;86.68;-18783.25;4962471;28;10406;-69
2022/04/14 03:49:33;;;;;;;;;11.75;9.75;;;;;11.04;87.08;-18782.78;4961555;28;10401;-69
2022/04/14 03:52:00;;;;;;;;;12.00;11.00;;;;;11.02;86.78;-18782.19;4960130;28;10229;-69
2022/04/14 03:54:26;;;;;;;;;16.25;13.00;;;;;10.99;86.89;-18781.28;4962499;28;10135;-69
2022/04/14 03:56:53;;;;;;;;;17.75;15.25;;;;;10.93;86.84;-18779.47;4960220;28;10375;-70
2022/04/14 03:59:20;;;;;;;;;16.00;12.75;;;;;10.92;86.95;-18779.19;4962968;28;10340;-69
2022/04/14 04:01:47;;;;;;;;;13.75;12.25;;;;;10.89;86.92;-18778.13;4960661;28;10249;-69
2022/04/14 04:04:13;;;;;;;;;18.00;16.75;;;;;10.90;86.89;-18778.41;4963074;28;10282;-69
2022/04/14 04:06:40;;;;;;;;;14.25;11.25;;;;;10.91;86.74;-18778.72;4961461;28;10475;-68
2022/04/14 04:09:06;;;;;;;;;15.50;11.50;;;;;10.88;86.84;-18777.81;4963006;28;10353;-69
2022/04/14 04:11:33;;;;;;;;;18.50;16.75;;;;;10.86;86.55;-18777.38;4961426;28;10298;-70
2022/04/14 04:13:59;;;;;;;;;17.00;17.00;;;;;10.81;86.78;-18775.84;4960824;28;10377;-70
2022/04/14 04:16:25;;;;;;;;;14.00;13.00;;;;;10.81;87.01;-18775.84;4961854;28;10502;-69
2022/04/14 04:18:52;;;;;;;;;17.50;13.50;;;;;10.75;86.71;-18774.03;4961041;28;10395;-68
2022/04/14 04:21:18;;;;;;;;;20.00;17.25;;;;;10.70;86.97;-18772.69;4960693;28;10539;-70
2022/04/14 04:23:45;;;;;;;;;14.25;14.25;;;;;10.66;87.11;-18771.34;4962773;28;10391;-70
2022/04/14 04:26:11;;;;;;;;;18.25;16.50;;;;;10.64;87.41;-18770.72;4960308;28;10436;-71
2022/04/14 04:28:38;;;;;;;;;16.00;14.75;;;;;10.65;87.59;-18771.19;4960959;28;10271;-70
2022/04/14 04:31:10;;;;;;;;;15.75;12.75;;;;;10.65;87.38;-18771.19;4961167;28;10414;-70
2022/04/14 04:33:36;;;;;;;;;14.00;12.25;;;;;10.64;87.28;-18770.72;4961866;28;10408;-71
2022/04/14 04:36:03;;;;;;;;;17.75;17.00;;;;;10.57;87.48;-18768.75;4960206;28;10402;-70
2022/04/14 04:38:30;;;;;;;;;14.50;14.50;;;;;10.56;87.49;-18768.31;4970283;28;10553;-70
2022/04/14 04:40:58;;;;;;;;;18.25;15.50;;;;;10.49;87.62;-18766.34;4964468;28;10316;-71
2022/04/14 04:43:26;;;;;;;;;18.25;16.50;;;;;10.45;88.13;-18765.16;4961114;28;10358;-71
2022/04/14 04:45:53;;;;;;;;;14.00;14.00;;;;;10.44;88.50;-18764.84;4961387;28;10497;-70
2022/04/14 04:48:19;;;;;;;;;21.00;19.25;;;;;10.48;88.53;-18766.19;4961045;28;10361;-70
2022/04/14 04:50:46;;;;;;;;;21.50;19.25;;;;;10.51;89.34;-18766.81;4960900;28;10629;-71
2022/04/14 04:53:12;;;;;;;;;16.00;13.75;;;;;10.59;89.26;-18769.22;4961940;28;10898;-70
2022/04/14 04:55:39;;;;;;;;;14.75;12.75;;;;;10.64;89.03;-18770.88;4961135;28;10396;-70
2022/04/14 04:58:05;;;;;;;;;13.75;13.75;;;;;10.69;89.21;-18772.38;4960874;28;10438;-71
2022/04/14 05:00:32;;;;;;;;;17.25;13.75;;;;;10.71;89.44;-18772.84;4962423;28;11131;-71
2022/04/14 05:02:59;;;;;;;;;17.75;15.50;;;;;10.72;89.14;-18773.13;4960623;28;10498;-70
2022/04/14 05:05:26;;;;;;;;;18.50;14.50;;;;;10.72;89.31;-18773.28;4960820;28;10427;-70
2022/04/14 05:07:53;;;;;;;;;18.25;14.00;;;;;10.79;89.52;-18775.25;4959213;28;10449;-70
2022/04/14 05:10:19;;;;;;;;;15.00;15.00;;;;;10.85;88.74;-18776.91;4961021;28;10489;-70
2022/04/14 05:12:45;;;;;;;;;14.50;12.50;;;;;10.86;89.04;-18777.38;4961053;28;11195;-72
2022/04/14 05:15:12;;;;;;;;;17.75;13.75;;;;;10.89;89.32;-18778.25;4961313;28;10363;-70
2022/04/14 05:17:39;;;;;;;;;20.00;15.00;;;;;10.94;89.15;-18779.63;4960796;28;11009;-71
2022/04/14 05:20:06;;;;;;;;;20.25;16.75;;;;;11.00;88.99;-18781.44;4962277;28;10376;-70
2022/04/14 05:22:32;;;;;;;;;14.00;13.50;;;;;11.02;88.90;-18782.03;4963917;28;10400;-71
2022/04/14 05:24:58;;;;;;;;;17.25;15.75;;;;;11.07;88.72;-18783.69;4964579;28;10343;-71
2022/04/14 05:27:25;;;;;;;;;16.00;16.00;;;;;11.09;88.47;-18784.31;4956282;28;10350;-70
2022/04/14 05:29:51;;;;;;;;;17.00;11.50;;;;;11.07;88.36;-18783.53;4959794;28;10428;-70
2022/04/14 05:32:18;;;;;;;;;16.25;16.25;;;;;11.02;88.01;-18782.03;4960388;28;11208;-71
2022/04/14 05:34:44;;;;;;;;;15.50;15.50;;;;;11.04;88.56;-18782.78;4957988;28;10635;-70
2022/04/14 05:37:11;;;;;;;;;19.75;15.25;;;;;11.08;88.17;-18783.84;4960499;28;10430;-69
2022/04/14 05:39:37;;;;;;;;;18.25;17.00;;;;;11.01;88.15;-18781.88;4960921;28;10277;-72
2022/04/14 05:42:04;;;;;;;;;14.25;13.75;;;;;11.08;88.40;-18783.84;4960451;28;10393;-70
2022/04/14 05:44:31;;;;;;;;;19.50;17.25;;;;;11.09;88.23;-18784.16;4960331;28;10389;-69
2022/04/14 05:46:57;;;;;;;;;16.50;14.00;;;;;11.09;88.16;-18784.31;4961255;28;10526;-69
2022/04/14 05:49:24;;;;;;;;;27.25;25.25;;;;;10.96;88.37;-18780.22;4966859;28;10370;-71
2022/04/14 05:51:50;;;;;;;;;18.50;18.25;;;;;10.99;88.98;-18781.28;4964580;28;10659;-69
2022/04/14 05:54:16;;;;;;;;;18.00;17.00;;;;;11.05;88.78;-18783.09;4963335;28;10524;-69
2022/04/14 05:56:43;;;;;;;;;21.25;20.00;;;;;11.03;88.89;-18782.50;4964666;28;10444;-68
2022/04/14 05:59:16;;;;;;;;;16.50;12.00;;;;;11.07;88.89;-18783.69;4964234;28;10332;-68
2022/04/14 06:01:44;;;;;;;;;18.50;14.75;;;;;11.11;88.78;-18784.75;4964155;28;10360;-69
2022/04/14 06:04:10;;;;;;;;;21.75;17.50;;;;;11.13;88.77;-18785.19;4971297;28;10508;-69
2022/04/14 06:06:37;;;;;;;;;14.25;12.75;;;;;11.13;88.70;-18785.34;4971984;28;10457;-68
2022/04/14 06:09:03;;;;;;;;;18.75;17.75;;;;;11.17;88.69;-18786.41;4972720;28;10358;-68
2022/04/14 06:11:30;;;;;;;;;14.50;11.75;;;;;11.22;88.23;-18788.06;4971831;28;10818;-70
2022/04/14 06:13:56;;;;;;;;;21.00;17.00;;;;;11.24;88.02;-18788.53;4973841;28;10427;-69
2022/04/14 06:16:23;;;;;;;;;16.00;14.50;;;;;11.24;88.17;-18788.53;4971550;28;11077;-69
2022/04/14 06:18:49;;;;;;;;;17.25;17.25;;;;;11.29;87.97;-18790.19;4955713;28;10279;-70
2022/04/14 06:21:16;;;;;;;;;16.25;16.00;;;;;11.29;87.83;-18790.19;4958625;28;10553;-70
2022/04/14 06:23:42;;;;;;;;;15.00;13.25;;;;;11.37;87.39;-18792.44;4968266;28;10363;-70
2022/04/14 06:26:08;;;;;;;;;14.00;13.00;;;;;11.39;87.49;-18793.19;4958076;28;10469;-70
2022/04/14 06:28:35;;;;;;;;;23.00;19.50;;;;;11.45;87.65;-18794.72;4967232;28;10198;-69
2022/04/14 06:31:01;;;;;;;;;16.00;15.00;;;;;11.56;86.97;-18798.03;4965835;28;10439;-69
2022/04/14 06:33:30;;;;;;;;;16.75;15.00;;;;;11.53;86.83;-18797.13;4969629;28;10482;-70
2022/04/14 06:35:59;;;;;;;;;18.50;17.00;;;;;11.60;87.17;-18799.38;4968012;28;11179;-71
2022/04/14 06:38:28;;;;;;;;;19.00;15.50;;;;;11.73;86.77;-18803.16;4970246;28;10332;-69
2022/04/14 06:40:54;;;;;;;;;18.25;15.75;;;;;11.79;86.59;-18804.81;4969645;28;10303;-70
2022/04/14 06:43:21;;;;;;;;;17.00;13.75;;;;;11.83;86.30;-18806.03;4968969;28;12410;-71
2022/04/14 06:45:47;;;;;;;;;14.25;13.00;;;;;11.94;86.35;-18809.34;4965164;28;10212;-69
2022/04/14 06:48:14;;;;;;;;;21.75;20.00;;;;;12.01;86.66;-18811.59;4970165;28;10098;-68
2022/04/14 06:50:41;;;;;;;;;14.00;13.25;;;;;12.04;85.85;-18812.19;4970209;28;10069;-69
2022/04/14 06:53:07;;;;;;;;;16.25;15.50;;;;;12.09;86.08;-18813.72;4967628;28;10840;-70
2022/04/14 06:55:35;;;;;;;;;18.00;17.25;;;;;12.02;85.40;-18811.91;4968690;28;10331;-70
2022/04/14 06:58:02;;;;;;;;;17.50;17.50;;;;;12.04;86.20;-18812.19;4966643;28;11167;-70
2022/04/14 07:00:29;;;;;;;;;17.00;17.00;;;;;12.04;86.01;-18812.34;4968863;28;10290;-68
2022/04/14 07:02:56;;;;;;;;;19.50;18.50;;;;;12.05;86.00;-18812.50;4966332;28;10139;-70
2022/04/14 07:05:23;;;;;;;;;20.00;15.50;;;;;12.07;85.98;-18813.09;4969216;28;10139;-71
2022/04/14 07:07:51;;;;;;;;;14.75;14.00;;;;;12.13;85.86;-18815.06;4968591;28;10294;-69
2022/04/14 07:10:17;;;;;;;;;20.00;19.00;;;;;12.44;85.29;-18824.09;4970275;28;10104;-69
2022/04/14 07:12:45;;;;;;;;;16.50;12.50;;;;;13.04;83.37;-18842.03;4966694;28;10115;-71
2022/04/14 07:15:13;;;;;;;;;16.00;15.00;;;;;13.52;81.21;-18856.34;4983335;28;10365;-70
2022/04/14 07:17:39;;;;;;;;;19.00;19.00;;;;;13.85;79.05;-18866.16;4963796;28;10284;-71
2022/04/14 07:20:09;;;;;;;;;26.50;21.75;;;;;14.08;77.37;-18872.78;4969440;28;10265;-70
2022/04/14 07:22:46;;;;;;;;;25.75;22.25;;;;;14.22;76.03;-18877.00;4969197;28;10344;-71
2022/04/14 07:25:17;;;;;;;;;22.75;21.00;;;;;14.35;75.73;-18880.75;4965992;28;10123;-70
2022/04/14 07:27:44;;;;;;;;;17.75;17.00;;;;;14.57;75.32;-18887.22;4966505;28;10101;-70
2022/04/14 07:30:11;;;;;;;;;25.25;22.25;;;;;14.65;73.83;-18889.63;4965981;28;10271;-70
2022/04/14 07:32:40;;;;;;;;;31.00;26.00;;;;;14.89;73.60;-18896.72;4984035;28;10235;-69
2022/04/14 07:35:07;;;;;;;;;27.50;22.75;;;;;14.90;72.97;-18897.00;4969493;28;10028;-72
2022/04/14 07:37:36;;;;;;;;;22.00;17.25;;;;;15.04;72.13;-18901.22;4965781;28;10076;-68
2022/04/14 07:40:07;;;;;;;;;21.25;21.00;;;;;15.06;72.69;-18901.81;4969598;28;9796;-70
2022/04/14 07:42:38;;;;;;;;;21.00;19.25;;;;;15.18;71.68;-18905.28;4968172;28;10001;-69
2022/04/14 07:45:06;;;;;;;;;13.75;13.00;;;;;15.28;70.90;-18908.44;4968351;28;9774;-70
2022/04/14 07:47:41;;;;;;;;;20.75;18.75;;;;;15.48;71.09;-18914.16;4965923;28;9628;-69
2022/04/14 07:50:08;;;;;;;;;16.00;16.00;;;;;15.52;70.25;-18915.53;4967660;28;9624;-69
2022/04/14 07:52:57;;;;;;;;;17.50;17.25;;;;;15.68;70.12;-18920.34;4969320;28;9628;-70
2022/04/14 07:55:26;;;;;;;;;13.75;12.00;;;;;15.90;69.43;-18926.81;4966229;28;9569;-70
2022/04/14 07:57:55;;;;;;;;;18.50;18.00;;;;;16.03;68.39;-18930.41;4960937;28;9687;-70
2022/04/14 08:00:24;;;;;;;;;21.50;17.75;;;;;16.14;67.76;-18933.72;4967947;28;10278;-70
2022/04/14 08:02:50;;;;;;;;;22.33;16.33;;;;;16.17;67.73;-18934.78;4967010;28;9618;-70
2022/04/14 08:05:17;;;;;;;;;14.33;13.00;;;;;16.28;67.25;-18938.09;4961077;28;9396;-69
2022/04/14 08:07:43;;;;;;;;;11.67;11.67;;;;;16.49;66.39;-18944.25;4971344;28;9276;-70
2022/04/14 08:10:10;;;;;;;;;13.33;13.33;;;;;16.70;66.55;-18950.28;4968453;28;9188;-69
2022/04/14 08:12:36;;;;;;;;;13.00;12.33;;;;;16.94;65.71;-18957.34;4970479;28;9350;-70
2022/04/14 08:15:03;;;;;;;;;12.67;12.33;;;;;17.05;65.02;-18960.63;4970035;28;9240;-70
2022/04/14 08:17:30;;;;;;;;;14.00;13.00;;;;;17.16;64.32;-18963.94;4970641;28;9274;-69
2022/04/14 08:19:56;;;;;;;;;9.67;9.67;;;;;16.96;64.00;-18957.94;4971579;28;9277;-70
2022/04/14 08:22:23;;;;;;;;;16.33;14.33;;;;;17.12;64.31;-18962.91;4968242;28;9261;-71
2022/04/14 08:24:50;;;;;;;;;14.67;14.00;;;;;17.17;64.50;-18964.25;4970584;28;9248;-71
2022/04/14 08:27:18;;;;;;;;;12.00;12.00;;;;;17.31;62.96;-18968.47;4970951;28;9244;-70
2022/04/14 08:29:44;;;;;;;;;15.33;14.67;;;;;17.48;62.26;-18973.41;4954144;28;9175;-71
2022/04/14 08:32:11;;;;;;;;;11.67;11.67;;;;;17.80;60.74;-18983.03;4952543;28;9092;-70
2022/04/14 08:34:38;;;;;;;;;10.00;10.00;;;;;17.99;60.26;-18988.44;4956320;28;8990;-71
2022/04/14 08:37:04;;;;;;;;;14.00;10.00;;;;;18.09;60.71;-18991.59;4970693;28;9122;-71
2022/04/14 08:39:32;;;;;;;;;16.33;16.00;;;;;18.24;59.06;-18995.94;4969667;28;8953;-71
2022/04/14 08:42:08;;;;;;;;;11.50;8.50;;;;;18.49;58.62;-19003.16;4971246;28;8933;-71
2022/04/14 08:44:41;;;;;;;;;16.33;16.00;;;;;18.53;57.88;-19004.38;4969713;28;8974;-70
2022/04/14 08:47:08;;;;;;;;;13.75;11.25;;;;;18.62;57.24;-19007.06;4962875;28;9174;-71
2022/04/14 08:49:35;;;;;;;;;13.00;13.00;;;;;18.70;56.24;-19009.47;4969703;28;8873;-70
2022/04/14 08:52:02;;;;;;;;;10.50;8.00;;;;;18.87;55.86;-19014.59;4965906;28;9129;-70
2022/04/14 08:54:29;;;;;;;;;14.00;12.33;;;;;19.08;55.11;-19020.72;4966973;28;8836;-71
2022/04/14 08:56:58;;;;;;;;;11.50;11.50;;;;;19.44;54.52;-19031.38;4970022;28;9782;-71
2022/04/14 08:59:25;;;;;;;;;11.00;10.50;;;;;19.54;54.02;-19034.25;4968981;28;8860;-70
2022/04/14 09:01:52;;;;;;;;;11.50;10.75;;;;;19.50;52.92;-19033.19;4971140;28;8995;-71
2022/04/14 09:04:19;;;;;;;;;10.00;10.00;;;;;19.62;52.32;-19036.81;4970390;28;9555;-71
2022/04/14 09:06:46;;;;;;;;;12.25;10.25;;;;;19.81;53.02;-19042.19;4970370;28;8966;-71
2022/04/14 09:09:12;;;;;;;;;9.25;9.25;;;;;19.81;52.69;-19042.19;4970444;28;8852;-70
2022/04/14 09:11:39;;;;;;;;;9.67;8.00;;;;;19.09;53.93;-19020.88;4965541;28;8837;-71
2022/04/14 09:14:05;;;;;;;;;10.00;10.00;;;;;19.11;54.86;-19021.50;4970646;28;8850;-69
2022/04/14 09:16:33;;;;;;;;;9.25;8.75;;;;;19.73;53.96;-19039.94;4964663;28;8974;-70
2022/04/14 09:19:02;;;;;;;;;8.25;8.25;;;;;19.84;52.23;-19043.25;4965275;28;9590;-71
2022/04/14 09:21:29;;;;;;;;;12.75;9.75;;;;;20.32;50.97;-19057.19;4968968;28;8867;-70
2022/04/14 09:23:55;;;;;;;;;17.25;13.75;;;;;20.26;49.57;-19055.69;4970833;28;8840;-70
2022/04/14 09:26:23;;;;;;;;;9.00;8.75;;;;;20.37;49.83;-19058.84;4965292;28;8949;-69
2022/04/14 09:29:04;;;;;;;;;16.25;13.75;;;;;20.31;49.72;-19056.91;4954495;28;8851;-70
2022/04/14 09:31:48;;;;;;;;;11.50;9.75;;;;;20.33;48.51;-19057.50;4962507;28;8844;-70
2022/04/14 09:34:18;;;;;;;;;10.50;10.50;;;;;20.42;48.64;-19060.34;4984533;28;8974;-70
2022/04/14 09:37:04;;;;;;;;;9.00;9.00;;;;;19.57;51.53;-19035.16;4973537;28;8967;-70
2022/04/14 09:39:49;;;;;;;;;9.25;9.25;;;;;19.22;53.48;-19024.78;4974811;28;8852;-71
2022/04/14 09:42:16;;;;;;;;;11.75;10.00;;;;;18.59;55.59;-19006.16;4961014;28;8859;-70
2022/04/14 09:44:42;;;;;;;;;15.50;14.25;;;;;18.65;55.33;-19008.13;4964356;28;8844;-70
2022/04/14 09:47:09;;;;;;;;;21.75;16.50;;;;;19.04;53.63;-19019.53;4968755;28;8843;-69
2022/04/14 09:49:41;;;;;;;;;11.50;11.25;;;;;19.50;52.37;-19033.03;4968548;28;8846;-70
2022/04/14 09:52:08;;;;;;;;;13.75;10.00;;;;;19.90;51.20;-19045.06;4973723;28;8832;-70
2022/04/14 09:54:34;;;;;;;;;11.50;11.50;;;;;19.85;50.59;-19043.56;4974219;28;8868;-70
2022/04/14 09:57:01;;;;;;;;;10.75;9.25;;;;;20.23;49.14;-19054.78;4972162;28;8836;-70
2022/04/14 09:59:28;;;;;;;;;12.25;12.00;;;;;20.22;48.33;-19054.50;4969220;28;8873;-70
2022/04/14 10:02:14;;;;;;;;;14.00;13.75;;;;;20.27;48.99;-19056.00;4969383;28;8886;-71
2022/04/14 10:04:46;;;;;;;;;14.75;10.75;;;;;20.93;47.70;-19075.34;4965755;28;8840;-71
2022/04/14 10:07:17;;;;;;;;;9.00;9.00;;;;;21.17;45.95;-19082.38;4973060;28;8891;-69
2022/04/14 10:09:48;;;;;;;;;7.25;6.50;;;;;21.39;45.47;-19088.84;4974186;28;9696;-69
2022/04/14 10:12:17;;;;;;;;;8.75;8.75;;;;;21.05;45.80;-19078.94;4972604;28;8950;-70
2022/04/14 10:14:56;;;;;;;;;9.50;9.00;;;;;21.33;44.10;-19087.03;4971724;28;8872;-70
2022/04/14 10:17:24;;;;;;;;;10.00;8.75;;;;;21.37;44.83;-19088.41;4967836;28;8874;-71
2022/04/14 10:19:51;;;;;;;;;17.75;11.75;;;;;21.38;45.06;-19088.53;4963819;28;8957;-70
2022/04/14 10:22:19;;;;;;;;;16.75;15.00;;;;;21.41;45.19;-19089.59;4965897;28;8950;-69
2022/04/14 10:24:46;;;;;;;;;9.00;9.00;;;;;21.44;44.80;-19090.50;4972878;28;8979;-70
2022/04/14 10:27:15;;;;;;;;;12.25;11.00;;;;;21.29;44.34;-19085.84;4972451;28;8967;-70
2022/04/14 10:29:41;;;;;;;;;11.75;10.75;;;;;21.14;44.29;-19081.50;4954241;28;8973;-69
2022/04/14 10:32:08;;;;;;;;;9.25;8.75;;;;;20.53;46.46;-19063.66;4962746;28;8955;-69
2022/04/14 10:34:34;;;;;;;;;8.00;8.00;;;;;20.32;46.88;-19057.19;4980213;28;9439;-70
2022/04/14 10:37:04;;;;;;;;;12.25;9.00;;;;;19.86;47.63;-19043.84;4971901;28;8958;-70
2022/04/14 10:39:38;;;;;;;;;8.50;8.00;;;;;19.77;48.56;-19041.16;4971020;28;9025;-71
2022/04/14 10:42:09;;;;;;;;;7.50;7.50;;;;;20.46;47.26;-19061.41;4972535;28;9007;-69
2022/04/14 10:44:50;;;;;;;;;6.25;6.25;;;;;21.03;45.70;-19078.34;4971279;28;8903;-68
2022/04/14 10:47:34;;;;;;;;;7.50;7.50;;;;;21.18;44.87;-19082.84;4971822;28;8849;-69
2022/04/14 10:50:03;;;;;;;;;7.25;6.25;;;;;21.43;43.54;-19090.19;4973209;28;8889;-69
2022/04/14 10:52:37;;;;;;;;;5.50;4.00;;;;;20.35;45.18;-19058.09;4985108;28;8844;-67
2022/04/14 10:55:04;;;;;;;;;7.50;6.00;;;;;20.45;45.07;-19061.25;4972078;28;8882;-68
2022/04/14 10:57:38;;;;;;;;;6.75;6.75;;;;;20.33;44.93;-19057.50;4969278;28;8967;-67
2022/04/14 11:00:20;;;;;;;;;3.50;3.50;;;;;20.51;43.97;-19062.91;4969398;28;9592;-69
2022/04/14 11:03:05;;;;;;;;;3.50;3.00;;;;;20.53;43.21;-19063.50;4970199;28;8876;-67
2022/04/14 11:05:41;;;;;;;;;3.00;2.00;;;;;20.93;42.02;-19075.19;4972930;28;8833;-69
2022/04/14 11:08:22;;;;;;;;;3.75;3.75;;;;;21.36;41.39;-19088.09;4953638;28;8834;-69
2022/04/14 11:11:07;;;;;;;;;4.75;4.75;;;;;21.57;40.97;-19094.09;4967904;28;8866;-69
2022/04/14 11:13:52;;;;;;;;;5.25;5.25;;;;;21.62;41.39;-19095.75;4972829;28;8836;-69
2022/04/14 11:16:41;;;;;;;;;3.00;3.00;;;;;21.67;40.72;-19097.09;4971872;28;8848;-70
2022/04/14 11:19:24;;;;;;;;;2.75;2.00;;;;;21.38;39.23;-19088.69;4967757;28;8814;-69